Aérodrome :
LOGIN :

S'inscrire | Disclaimer

   EN    FR    IT 

 










Légende :    VFR   VFR Marginal   IFR   IFR Intensif   IFR Très Intensif
Visi : 
Plafond : 
>= 8 km
>= 3000ft
5 à 8 km
1000 à 3000 ft
1500m à 5 km
500 à 1000 ft
800 à 1500m
200 à 500 ft
< 800m
< 200 ft
Symboles :   Orages  Brouillard  Fortes neiges  Fortes précipitations  Vent > 20 kt
SIGMETs :   Divers  Orages  Givrage  Turbulence  Onde Orograph.  Cendres Volcan.






- Altitude de l'aérodrome : 171 ft
- Code IATA : EGC


LFBE - Bergerac

DERNIER METAR :
  • 260800Z AUTO 08003KT 3400 -RA BR BKN008/// BKN014/// OVC024/// ///CB 06/06 Q1019 TEMPO OVC005

METARs EXPIRÉS :
  • 260730Z AUTO 05003KT 5000 -DZ BR BKN008/// OVC022/// ///CB 06/06 Q1019 TEMPO OVC005
  • 260700Z AUTO VRB02KT 5000 -RA BR SCT007/// BKN013/// BKN020/// ///CB 06/05 Q1019 TEMPO OVC005
  • 260630Z AUTO 08003KT 5000 -RA BR FEW024/// BKN056/// OVC072/// ///CB 06/05 Q1019 TEMPO OVC005
  • 260600Z AUTO 06002KT 6000 -RA FEW019/// SCT041/// BKN049/// ///CB 06/05 Q1018 TEMPO 3000 BR OVC005
  • 260530Z AUTO 09002KT 5000 -RA BR OVC020/// ///TCU 06/05 Q1018 TEMPO OVC005

TAF AMD TAF LFBE
Valide du 26 à 06h jusqu'au 27 à 06h UTC


260625Z 2606/2706 VRB03KT 8000 BKN025
TEMPO 2606/2608 5000 -RA BKN013TCU
PROB40
TEMPO 2606/2611 3000 BR OVC005
BECMG 2619/2621 CAVOK
PROB30
TEMPO 2700/2706 3000 BR BKN005



MET'MAP, la Météo Aéronautique d'un coup d'oeil ! - Copyright ORBIFLY Décembre 2007 - Disclaimer

ORBIFLY MET'MAP TEAM :

Programmation & Développement : Alexandra Zaïnal
Sur une idée originale de : Baudouin d'Aumeries
Assistance à la programmation : Marc-Olivier Méhu
Soutien technique & logistique : Manuel Goepfert

Contact : metmap@orbifly.com




SOURCES & CREDITS :

   NOAA